Terminal Aerodrome Forecast
Issued by NWS Shreveport, LA

Home | Current Version | Previous Version | Text Only | Print | Product List | Glossary On
Versions: 1 2 3 4 5 6 7 8 9 10 11 12 13 14 15 16 17 18 19 20 21 22 23 24
000
FTUS44 KSHV 281322 AAB
TAFLFK
TAF AMD
KLFK 281322Z 2813/2912 14007KT P6SM BKN010 OVC025
      TEMPO 2813/2814 5SM BR
     FM281500 18012G18KT P6SM BKN020 OVC030
     FM281800 18016G27KT P6SM SCT025 BKN035
     FM290300 16013G20KT P6SM BKN015 OVC025=

USA.gov is the U.S. government's official web portal to all federal, state and local government web resources and services.